Map

Track Data

SID SEASON NUMBER BASIN SUBBASIN NAME ISO_TIME NATURE LAT LON WMO_WIND WMO_PRES WMO_AGENCY TRACK_TYPE DIST2LAND LANDFALL IFLAG USA_AGENCY USA_ATCF_ID USA_LAT USA_LON USA_RECORD USA_STATUS USA_WIND USA_PRES USA_SSHS USA_R34_NE USA_R34_SE USA_R34_SW USA_R34_NW USA_R50_NE USA_R50_SE USA_R50_SW USA_R50_NW USA_R64_NE USA_R64_SE USA_R64_SW USA_R64_NW USA_POCI USA_ROCI USA_RMW USA_EYE TOKYO_LAT TOKYO_LON TOKYO_GRADE TOKYO_WIND TOKYO_PRES TOKYO_R50_DIR TOKYO_R50_LONG TOKYO_R50_SHORT TOKYO_R30_DIR TOKYO_R30_LONG TOKYO_R30_SHORT TOKYO_LAND CMA_LAT CMA_LON CMA_CAT CMA_WIND CMA_PRES HKO_LAT HKO_LON HKO_CAT HKO_WIND HKO_PRES NEWDELHI_LAT NEWDELHI_LON NEWDELHI_GRADE NEWDELHI_WIND NEWDELHI_PRES NEWDELHI_CI NEWDELHI_DP NEWDELHI_POCI REUNION_LAT REUNION_LON REUNION_TYPE REUNION_WIND REUNION_PRES REUNION_TNUM REUNION_CI REUNION_RMW REUNION_R34_NE REUNION_R34_SE REUNION_R34_SW REUNION_R34_NW REUNION_R50_NE REUNION_R50_SE REUNION_R50_SW REUNION_R50_NW REUNION_R64_NE REUNION_R64_SE REUNION_R64_SW REUNION_R64_NW BOM_LAT BOM_LON BOM_TYPE BOM_WIND BOM_PRES BOM_TNUM BOM_CI BOM_RMW BOM_R34_NE BOM_R34_SE BOM_R34_SW BOM_R34_NW BOM_R50_NE BOM_R50_SE BOM_R50_SW BOM_R50_NW BOM_R64_NE BOM_R64_SE BOM_R64_SW BOM_R64_NW BOM_ROCI BOM_POCI BOM_EYE BOM_POS_METHOD BOM_PRES_METHOD NADI_LAT NADI_LON NADI_CAT NADI_WIND NADI_PRES WELLINGTON_LAT WELLINGTON_LON WELLINGTON_WIND WELLINGTON_PRES DS824_LAT DS824_LON DS824_STAGE DS824_WIND DS824_PRES TD9636_LAT TD9636_LON TD9636_STAGE TD9636_WIND TD9636_PRES TD9635_LAT TD9635_LON TD9635_WIND TD9635_PRES TD9635_ROCI NEUMANN_LAT NEUMANN_LON NEUMANN_CLASS NEUMANN_WIND NEUMANN_PRES MLC_LAT MLC_LON MLC_CLASS MLC_WIND MLC_PRES USA_GUST BOM_GUST BOM_GUST_PER REUNION_GUST REUNION_GUST_PER USA_SEAHGT USA_SEARAD_NE USA_SEARAD_SE USA_SEARAD_SW USA_SEARAD_NW STORM_SPEED STORM_DIR
1920212N17115 1920 27 WP MM NOT_NAMED 1920-07-30 10:00:00 NR 16.7000 115.200 main 486 486 __________O___ -1 16.7000 115.200 7 9 344
1920212N17115 1920 27 WP MM NOT_NAMED 1920-07-30 12:00:00 NR 16.9942 115.104 main 503 488 __________P___ -1 16.9942 115.104 7 9 342
1920212N17115 1920 27 WP MM NOT_NAMED 1920-07-30 15:00:00 NR 17.4314 114.957 main 488 443 __________P___ -1 17.4314 114.957 7 9 342
1920212N17115 1920 27 WP MM NOT_NAMED 1920-07-30 18:00:00 NR 17.8581 114.808 main 443 415 __________P___ -1 17.8581 114.808 7 9 341
1920212N17115 1920 27 WP MM NOT_NAMED 1920-07-30 21:00:00 NR 18.2681 114.653 main 415 401 __________P___ -1 18.2681 114.653 7 9 340
1920212N17115 1920 27 WP MM NOT_NAMED 1920-07-30 22:00:00 NR 18.4000 114.600 main 401 381 __________O___ -1 18.4000 114.600 4 8 338
1920212N17115 1920 27 WP MM NOT_NAMED 1920-07-31 00:00:00 NR 18.6557 114.492 main 381 351 __________P___ -1 18.6557 114.492 4 8 337
1920212N17115 1920 27 WP MM NOT_NAMED 1920-07-31 03:00:00 NR 19.0204 114.323 main 351 302 __________P___ -1 19.0204 114.323 4 8 335
1920212N17115 1920 27 WP MM NOT_NAMED 1920-07-31 06:00:00 NR 19.3653 114.146 main 302 267 __________P___ -1 19.3653 114.146 4 8 333
1920212N17115 1920 27 WP MM NOT_NAMED 1920-07-31 09:00:00 NR 19.6937 113.963 main 267 252 __________P___ -1 19.6937 113.963 4 7 332
1920212N17115 1920 27 WP MM NOT_NAMED 1920-07-31 10:00:00 NR 19.8000 113.900 main 252 228 __________O___ -1 19.8000 113.900 4 7 333
1920212N17115 1920 27 WP MM NOT_NAMED 1920-07-31 12:00:00 NR 20.0112 113.788 main 228 189 __________P___ -1 20.0112 113.788 4 7 332
1920212N17115 1920 27 WP MM NOT_NAMED 1920-07-31 15:00:00 NR 20.3155 113.614 main 189 151 __________P___ -1 20.3155 113.614 4 7 330
1920212N17115 1920 27 WP MM NOT_NAMED 1920-07-31 18:00:00 NR 20.6104 113.419 main 151 113 __________P___ -1 20.6104 113.419 4 7 326
1920212N17115 1920 27 WP MM NOT_NAMED 1920-07-31 21:00:00 NR 20.9023 113.188 main 113 101 __________P___ -1 20.9023 113.188 4 7 323
1920212N17115 1920 27 WP MM NOT_NAMED 1920-07-31 22:00:00 NR 21.0000 113.100 main 101 73 __________O___ -1 21.0000 113.100 4 8 315
1920212N17115 1920 27 WP MM NOT_NAMED 1920-08-01 00:00:00 NR 21.1846 112.888 main 73 30 __________P___ -1 21.1846 112.888 4 8 311
1920212N17115 1920 27 WP MM NOT_NAMED 1920-08-01 03:00:00 NR 21.4609 112.531 main 30 0 __________P___ -1 21.4609 112.531 4 9 310
1920212N17115 1920 27 WP MM NOT_NAMED 1920-08-01 06:00:00 NR 21.7531 112.160 main 0 0 __________P___ -1 21.7531 112.160 4 9 313
1920212N17115 1920 27 WP MM NOT_NAMED 1920-08-01 09:00:00 NR 22.0800 111.807 main 0 0 __________P___ -1 22.0800 111.807 4 9 316
1920212N17115 1920 27 WP MM NOT_NAMED 1920-08-01 10:00:00 NR 22.2000 111.700 main 0 0 __________O___ -1 22.2000 111.700 2 9 323
1920212N17115 1920 27 WP MM NOT_NAMED 1920-08-01 12:00:00 NR 22.4590 111.506 main 0 0 __________P___ -1 22.4590 111.506 2 10 329
1920212N17115 1920 27 WP MM NOT_NAMED 1920-08-01 15:00:00 NR 22.8880 111.259 main 0 0 __________P___ -1 22.8880 111.259 2 10 335
1920212N17115 1920 27 WP MM NOT_NAMED 1920-08-01 18:00:00 NR 23.3523 111.050 main 0 0 __________P___ -1 23.3523 111.050 2 10 339
1920212N17115 1920 27 WP MM NOT_NAMED 1920-08-01 21:00:00 NR 23.8367 110.861 main 0 0 __________P___ -1 23.8367 110.861 2 10 341
1920212N17115 1920 27 WP MM NOT_NAMED 1920-08-01 22:00:00 NR 24.0000 110.800 main 0 __________O___ -1 24.0000 110.800 7 10 341

Digital Typhoon Data and Search

About IBTrACS Database

This database is a web-friendly format of International Best Track Archive for Climate Stewardship (IBTrACS), a global best track data archive curated by NOAA dating back to 1842.

Updated: 2021-12-08